Johnson City, Texas
Current Conditions -  °F | °C
As of 5:55 AM on Friday 21 Nov 2014 (Local Time) from KDZB Reporting Station
Moderate Fog Moderate Fog  
Wind Chill: 56°   Ceiling: 400
Heat Index: 56°   Visibility: 0.25mi
Dew Point: 56°   Wind: 0mph
Humidity: 100%   Direction: NA
Pressure: 30.04"   Gusts: NA
Location:  30.28°N, 98.41°W
Report Text: KDZB 211155Z AUTO 00000KT 1/4SM FG OVC004 13/13 A3004 RMK AO2 T01340134 10160 20117
Loading
Personal Weather Stations






























Interactive Weather Map New forecast layout! Learn more

10-Day Weather Forecast

Advertisements
Track Severe Weather on mobile